createdAt,value
2023-02-15T00:01:56.198Z,9.00
2023-02-15T00:04:24.462Z,8.50
2023-02-15T00:06:52.444Z,13.40
2023-02-15T00:09:19.458Z,3.40
2023-02-15T00:11:51.730Z,11.00
2023-02-15T00:14:21.819Z,11.20
2023-02-15T00:16:50.052Z,2.70
2023-02-15T00:19:18.334Z,8.00
2023-02-15T00:21:47.898Z,3.80
2023-02-15T00:24:17.112Z,5.70
2023-02-15T00:26:44.601Z,2.40
2023-02-15T00:29:11.948Z,3.30
2023-02-15T00:31:39.485Z,3.50
2023-02-15T00:34:20.892Z,4.80
2023-02-15T00:36:48.455Z,5.10
2023-02-15T00:39:16.399Z,8.00
2023-02-15T00:41:45.348Z,0.30
2023-02-15T00:44:12.872Z,10.00
2023-02-15T00:46:40.420Z,6.40
2023-02-15T00:49:10.450Z,5.90
2023-02-15T00:51:40.778Z,5.10
2023-02-15T00:54:09.737Z,5.10
2023-02-15T00:56:38.101Z,6.10
2023-02-15T00:59:09.719Z,7.10
2023-02-15T01:01:37.735Z,8.10
2023-02-15T01:04:05.061Z,5.30
2023-02-15T01:06:32.783Z,4.00
2023-02-15T01:09:00.122Z,5.70
2023-02-15T01:11:27.547Z,4.30
2023-02-15T01:13:56.688Z,6.30
2023-02-15T01:16:25.324Z,14.30
2023-02-15T01:18:57.665Z,12.00
2023-02-15T01:21:25.789Z,24.40
2023-02-15T01:23:53.312Z,16.20
2023-02-15T01:26:22.038Z,6.60
2023-02-15T01:28:49.356Z,6.20
2023-02-15T01:31:18.512Z,11.90
2023-02-15T01:33:47.048Z,7.70
2023-02-15T01:36:14.790Z,4.20
2023-02-15T01:38:42.244Z,5.30
2023-02-15T01:41:26.715Z,5.30
2023-02-15T01:43:58.635Z,4.20
2023-02-15T01:46:37.787Z,2.50
2023-02-15T01:49:13.853Z,5.70
2023-02-15T01:51:41.164Z,7.30
2023-02-15T01:54:12.430Z,8.80
2023-02-15T01:56:39.598Z,8.30
2023-02-15T01:59:09.905Z,7.50
2023-02-15T02:01:37.156Z,6.40
2023-02-15T02:04:10.423Z,5.30
2023-02-15T02:06:38.554Z,4.30
2023-02-15T02:09:09.494Z,3.00
2023-02-15T02:11:36.730Z,3.50
2023-02-15T02:14:04.487Z,2.70
2023-02-15T02:16:45.315Z,4.20
2023-02-15T02:19:28.074Z,2.50
2023-02-15T02:22:08.000Z,4.40
2023-02-15T02:24:54.383Z,2.40
2023-02-15T02:27:27.069Z,2.00
2023-02-15T02:32:30.675Z,2.50
2023-02-15T02:35:44.069Z,2.10
2023-02-15T02:38:37.364Z,2.30
2023-02-15T02:43:56.138Z,4.90
2023-02-15T02:46:29.401Z,5.20
2023-02-15T02:51:25.050Z,2.60
2023-02-15T02:53:53.869Z,5.10
2023-02-15T02:56:39.341Z,4.20
2023-02-15T02:59:18.783Z,3.80
2023-02-15T03:01:52.720Z,4.60
2023-02-15T03:04:22.702Z,5.90
2023-02-15T03:06:58.976Z,12.40
2023-02-15T03:09:44.077Z,3.30
2023-02-15T03:12:25.269Z,3.30
2023-02-15T03:15:20.107Z,3.90
2023-02-15T03:17:49.692Z,5.40
2023-02-15T03:20:26.465Z,13.40
2023-02-15T03:22:58.158Z,9.50
2023-02-15T03:25:34.617Z,9.80
2023-02-15T03:28:07.816Z,7.70
2023-02-15T03:30:35.790Z,8.10
2023-02-15T03:33:03.208Z,10.20
2023-02-15T03:36:09.420Z,5.20
2023-02-15T03:38:59.784Z,5.10
2023-02-15T03:41:30.042Z,4.20
2023-02-15T03:44:07.244Z,9.70
2023-02-15T03:46:43.205Z,8.60
2023-02-15T03:49:45.501Z,8.10
2023-02-15T03:52:12.808Z,14.00
2023-02-15T03:54:42.658Z,8.80
2023-02-15T03:57:34.575Z,8.90
2023-02-15T04:00:25.716Z,9.60
2023-02-15T04:03:27.009Z,11.90
2023-02-15T04:05:54.914Z,11.50
2023-02-15T04:08:42.066Z,13.70
2023-02-15T04:11:11.836Z,8.30
2023-02-15T04:13:39.730Z,8.90
2023-02-15T04:16:08.124Z,7.00
2023-02-15T04:18:59.255Z,7.00
2023-02-15T04:21:46.947Z,7.30
2023-02-15T04:24:33.075Z,6.70
2023-02-15T04:27:00.510Z,5.70
2023-02-15T04:29:27.847Z,8.20
2023-02-15T04:31:56.207Z,5.50
2023-02-15T04:34:23.338Z,7.20
2023-02-15T04:36:50.872Z,2.80
2023-02-15T04:39:18.467Z,5.90
2023-02-15T04:41:45.992Z,3.00
2023-02-15T04:44:14.298Z,5.60
2023-02-15T04:46:41.353Z,3.90
2023-02-15T04:49:09.032Z,6.10
2023-02-15T04:51:36.373Z,13.70
2023-02-15T04:54:04.872Z,6.20
2023-02-15T04:56:34.882Z,11.00
2023-02-15T04:59:02.951Z,6.00
2023-02-15T05:01:30.418Z,3.80
2023-02-15T05:03:57.804Z,8.20
2023-02-15T05:06:24.862Z,5.60
2023-02-15T05:08:51.923Z,4.00
2023-02-15T05:11:19.093Z,4.40
2023-02-15T05:13:46.214Z,3.10
2023-02-15T05:16:15.247Z,2.40
2023-02-15T05:18:42.570Z,3.40
2023-02-15T05:21:09.890Z,2.10
2023-02-15T05:23:37.090Z,4.00
2023-02-15T05:26:22.817Z,2.90
2023-02-15T05:28:49.827Z,3.90
2023-02-15T05:31:18.416Z,2.90
2023-02-15T05:33:46.700Z,3.00
2023-02-15T05:36:14.037Z,4.50
2023-02-15T05:38:41.212Z,2.30
2023-02-15T05:41:09.422Z,4.70
2023-02-15T05:43:38.891Z,9.20
2023-02-15T05:46:06.138Z,6.60
2023-02-15T05:48:33.447Z,8.50
2023-02-15T05:51:08.761Z,6.10
2023-02-15T05:53:37.430Z,12.20
2023-02-15T05:56:06.386Z,14.80
2023-02-15T05:58:38.555Z,10.40
2023-02-15T06:01:13.623Z,6.10
2023-02-15T06:03:40.967Z,6.50
2023-02-15T06:06:08.573Z,6.80
2023-02-15T06:08:36.293Z,8.50
2023-02-15T06:11:04.099Z,12.10
2023-02-15T06:13:32.441Z,4.60
2023-02-15T06:16:01.004Z,7.30
2023-02-15T06:18:29.394Z,23.50
2023-02-15T06:20:56.422Z,20.70
2023-02-15T06:23:24.208Z,18.70
2023-02-15T06:25:51.611Z,8.80
2023-02-15T06:28:20.218Z,6.30
2023-02-15T06:30:47.442Z,6.00
2023-02-15T06:33:15.682Z,18.00
2023-02-15T06:35:42.732Z,9.60
2023-02-15T06:38:10.030Z,7.00
2023-02-15T06:40:37.230Z,6.10
2023-02-15T06:43:08.854Z,8.60
2023-02-15T06:45:36.306Z,11.10
2023-02-15T06:48:03.522Z,14.90
2023-02-15T06:50:31.117Z,8.70
2023-02-15T06:52:58.897Z,9.90
2023-02-15T06:55:26.138Z,21.10
2023-02-15T06:57:54.264Z,18.70
2023-02-15T07:00:23.740Z,11.90
2023-02-15T07:02:58.645Z,9.90
2023-02-15T07:05:32.894Z,10.30
2023-02-15T07:08:02.295Z,16.60
2023-02-15T07:10:29.824Z,11.20
2023-02-15T07:12:57.170Z,17.20
2023-02-15T07:15:26.034Z,12.50
2023-02-15T07:17:53.658Z,13.60
2023-02-15T07:20:22.159Z,12.40
2023-02-15T07:22:50.334Z,13.10
2023-02-15T07:25:21.184Z,12.80
2023-02-15T07:27:48.829Z,13.20
2023-02-15T07:30:17.320Z,17.70
2023-02-15T07:33:05.708Z,19.80
2023-02-15T07:35:34.665Z,23.30
2023-02-15T07:38:01.964Z,14.10
2023-02-15T07:40:29.498Z,18.80
2023-02-15T07:42:58.557Z,27.20
2023-02-15T07:45:26.173Z,11.90
2023-02-15T07:47:56.600Z,11.60
2023-02-15T07:50:24.062Z,19.00
2023-02-15T07:52:51.911Z,20.60
2023-02-15T07:55:20.113Z,13.90
2023-02-15T07:57:48.039Z,15.00
2023-02-15T08:00:17.288Z,19.20
2023-02-15T08:02:49.615Z,17.10
2023-02-15T08:05:18.882Z,15.90
2023-02-15T08:07:46.178Z,23.70
2023-02-15T08:10:33.167Z,36.90
2023-02-15T08:13:01.234Z,34.20
2023-02-15T08:15:32.399Z,25.30
2023-02-15T08:18:00.350Z,30.40
2023-02-15T08:20:27.567Z,38.80
2023-02-15T08:22:56.321Z,45.60
2023-02-15T08:25:27.831Z,52.20
2023-02-15T08:28:04.017Z,79.60
2023-02-15T08:30:36.352Z,25.90
2023-02-15T08:33:04.296Z,22.40
2023-02-15T08:35:32.635Z,22.50
2023-02-15T08:37:59.727Z,20.30
2023-02-15T08:40:26.879Z,24.80
2023-02-15T08:42:54.214Z,23.10
2023-02-15T08:45:22.075Z,25.90
2023-02-15T08:47:50.204Z,21.20
2023-02-15T08:50:17.695Z,29.80
2023-02-15T08:52:44.838Z,25.40
2023-02-15T08:55:11.900Z,20.80
2023-02-15T08:57:45.328Z,19.80
2023-02-15T09:00:13.774Z,25.00
2023-02-15T09:02:41.168Z,32.20
2023-02-15T09:05:08.984Z,26.10
2023-02-15T09:07:36.990Z,18.30
2023-02-15T09:10:06.042Z,31.60
2023-02-15T09:12:34.201Z,42.40
2023-02-15T09:15:06.172Z,40.40
2023-02-15T09:17:34.782Z,24.30
2023-02-15T09:20:03.197Z,24.80
2023-02-15T09:22:32.550Z,19.10
2023-02-15T09:25:00.083Z,28.70
2023-02-15T09:27:27.151Z,37.00
2023-02-15T09:29:54.504Z,19.80
2023-02-15T09:32:23.078Z,18.00
2023-02-15T09:34:51.381Z,21.90
2023-02-15T09:37:20.141Z,27.90
2023-02-15T09:39:49.136Z,24.40
2023-02-15T09:42:23.752Z,27.30
2023-02-15T09:45:09.264Z,24.90
2023-02-15T09:47:45.201Z,26.20
2023-02-15T09:50:13.368Z,32.00
2023-02-15T09:52:53.941Z,29.80
2023-02-15T09:55:26.011Z,22.30
2023-02-15T09:58:13.316Z,32.80
2023-02-15T10:00:56.112Z,61.00
2023-02-15T10:03:58.841Z,33.60
2023-02-15T10:06:47.520Z,38.60
2023-02-15T10:09:49.155Z,23.70
2023-02-15T10:12:32.924Z,15.60
2023-02-15T10:15:16.880Z,20.40
2023-02-15T10:18:07.025Z,34.80
2023-02-15T10:20:57.116Z,19.70
2023-02-15T10:23:37.787Z,24.70
2023-02-15T10:26:12.072Z,16.00
2023-02-15T10:29:09.773Z,22.50
2023-02-15T10:31:52.212Z,19.20
2023-02-15T10:34:39.728Z,16.80
2023-02-15T10:37:17.462Z,22.60
2023-02-15T10:40:06.353Z,21.80
2023-02-15T10:43:12.467Z,22.30
2023-02-15T10:46:01.628Z,35.30
2023-02-15T10:49:06.179Z,30.60
2023-02-15T10:52:02.742Z,25.30
2023-02-15T10:55:24.423Z,23.00
2023-02-15T10:57:56.170Z,13.10
2023-02-15T11:00:40.048Z,29.50
2023-02-15T11:03:33.101Z,17.70
2023-02-15T11:08:38.838Z,30.50
2023-02-15T11:11:10.293Z,38.10
2023-02-15T11:13:42.898Z,30.80
2023-02-15T11:16:26.597Z,20.70
2023-02-15T11:19:00.116Z,24.00
2023-02-15T11:21:29.064Z,13.10
2023-02-15T11:23:56.152Z,14.70
2023-02-15T11:26:33.732Z,17.70
2023-02-15T11:29:06.854Z,22.10
2023-02-15T11:31:45.758Z,19.90
2023-02-15T11:34:34.995Z,18.30
2023-02-15T11:37:05.908Z,38.50
2023-02-15T12:25:55.152Z,21.90
2023-02-15T12:28:33.327Z,15.30
2023-02-15T12:31:02.434Z,26.40
2023-02-15T12:33:33.982Z,23.00
2023-02-15T12:36:03.085Z,23.00
2023-02-15T12:38:32.182Z,43.60
2023-02-15T12:41:04.708Z,40.50
2023-02-15T12:43:38.181Z,30.20
2023-02-15T12:46:26.478Z,22.50
2023-02-15T12:49:11.160Z,14.70
2023-02-15T12:51:49.613Z,17.70
2023-02-15T12:54:32.435Z,36.40
2023-02-15T12:56:59.889Z,47.80
2023-02-15T12:59:27.255Z,33.00
2023-02-15T13:01:54.755Z,21.90
2023-02-15T13:04:29.314Z,25.60
2023-02-15T13:06:59.022Z,23.70
2023-02-15T13:09:33.196Z,36.10
2023-02-15T13:12:32.587Z,23.50
2023-02-15T13:15:03.652Z,28.90
2023-02-15T13:17:32.471Z,29.80
2023-02-15T13:20:04.054Z,29.60
2023-02-15T13:23:06.287Z,18.20
2023-02-15T13:25:40.779Z,11.60
2023-02-15T13:28:09.032Z,26.70
2023-02-15T13:30:42.057Z,20.10
2023-02-15T13:33:31.407Z,22.30
2023-02-15T13:36:18.653Z,43.70
2023-02-15T13:38:53.866Z,21.50
2023-02-15T13:41:35.607Z,40.80
2023-02-15T13:44:03.758Z,33.90
2023-02-15T13:46:34.708Z,26.50
2023-02-15T13:49:24.798Z,26.20
2023-02-15T13:52:24.319Z,36.50
2023-02-15T13:55:16.956Z,35.20
2023-02-15T13:57:56.724Z,19.70
2023-02-15T14:00:49.958Z,15.70
2023-02-15T14:03:37.914Z,20.20
2023-02-15T14:06:05.734Z,26.10
2023-02-15T14:08:52.554Z,29.30
2023-02-15T14:11:25.211Z,25.10
2023-02-15T14:13:59.056Z,34.60
2023-02-15T14:16:34.020Z,57.90
2023-02-15T14:19:06.470Z,22.40
2023-02-15T14:21:50.394Z,24.70
2023-02-15T14:24:49.645Z,20.50
2023-02-15T14:27:44.740Z,32.10
2023-02-15T14:30:19.962Z,44.50
2023-02-15T14:32:54.344Z,30.30
2023-02-15T14:35:24.629Z,25.70
2023-02-15T14:37:57.869Z,19.70
2023-02-15T14:43:56.029Z,12.90
2023-02-15T14:46:39.734Z,19.40
2023-02-15T14:49:13.546Z,20.40
2023-02-15T14:51:44.014Z,13.70
2023-02-15T14:54:17.980Z,19.70
2023-02-15T14:56:45.931Z,13.70
2023-02-15T14:59:19.237Z,17.50
2023-02-15T15:01:59.828Z,13.10
2023-02-15T15:04:48.408Z,19.50
2023-02-15T15:07:25.977Z,25.10
2023-02-15T15:10:16.393Z,22.40
2023-02-15T15:12:54.315Z,23.30
2023-02-15T15:15:27.287Z,16.90
2023-02-15T15:18:09.024Z,15.60
2023-02-15T15:20:45.792Z,15.70
2023-02-15T15:23:16.172Z,15.00
2023-02-15T15:25:49.486Z,34.30
2023-02-15T15:28:35.522Z,64.10
2023-02-15T15:31:08.802Z,58.20
2023-02-15T15:33:55.083Z,25.00
2023-02-15T15:36:48.219Z,12.20
2023-02-15T15:39:35.233Z,7.00
2023-02-15T15:42:29.209Z,16.50
2023-02-15T15:45:24.018Z,22.20
2023-02-15T15:48:13.595Z,22.50
2023-02-15T15:50:41.461Z,7.40
2023-02-15T15:53:21.796Z,18.50
2023-02-15T15:55:50.083Z,15.40
2023-02-15T15:58:17.984Z,17.70
2023-02-15T16:01:07.961Z,23.40
2023-02-15T16:03:35.595Z,11.00
2023-02-15T16:06:03.352Z,8.10
2023-02-15T16:08:41.163Z,14.70
2023-02-15T16:11:26.230Z,13.90
2023-02-15T16:13:53.554Z,15.40
2023-02-15T16:16:29.511Z,17.40
2023-02-15T16:18:58.441Z,13.20
2023-02-15T16:21:33.968Z,15.90
2023-02-15T16:24:14.418Z,18.30
2023-02-15T16:26:42.237Z,17.80
2023-02-15T16:29:18.198Z,9.40
2023-02-15T16:32:02.778Z,20.10
2023-02-15T16:34:32.910Z,12.30
2023-02-15T16:37:16.544Z,9.70
2023-02-15T16:39:44.553Z,13.30
2023-02-15T16:42:17.619Z,9.10
2023-02-15T16:44:46.734Z,9.10
2023-02-15T16:47:32.250Z,7.20
2023-02-15T16:50:01.000Z,6.70
2023-02-15T16:52:28.125Z,8.90
2023-02-15T16:55:00.093Z,7.70
2023-02-15T16:57:31.435Z,10.30
2023-02-15T17:00:05.569Z,9.70
2023-02-15T17:02:54.412Z,11.00
2023-02-15T17:05:21.446Z,8.60
2023-02-15T17:08:11.868Z,13.00
2023-02-15T17:10:42.295Z,6.90
2023-02-15T17:13:13.027Z,6.20
2023-02-15T17:15:44.699Z,5.10
2023-02-15T17:18:15.013Z,11.10
2023-02-15T17:20:42.872Z,9.00
2023-02-15T17:23:36.542Z,11.90
2023-02-15T17:26:21.815Z,14.70
2023-02-15T17:28:54.418Z,19.50
2023-02-15T17:31:21.891Z,21.60
2023-02-15T17:33:50.133Z,18.40
2023-02-15T17:36:23.012Z,20.20
2023-02-15T17:39:03.185Z,13.70
2023-02-15T17:41:34.585Z,29.20
2023-02-15T17:44:03.314Z,29.10
2023-02-15T17:46:35.240Z,20.40
2023-02-15T17:49:02.727Z,16.00
2023-02-15T17:51:31.511Z,20.80
2023-02-15T17:54:17.604Z,15.90
2023-02-15T17:56:44.961Z,23.00
2023-02-15T17:59:13.753Z,29.80
2023-02-15T18:02:05.891Z,17.60
2023-02-15T18:04:52.188Z,14.30
2023-02-15T18:07:40.948Z,18.20
2023-02-15T18:10:36.922Z,8.80
2023-02-15T18:13:04.415Z,12.00
2023-02-15T18:15:31.820Z,9.40
2023-02-15T18:18:00.926Z,7.40
2023-02-15T18:20:36.301Z,9.30
2023-02-15T18:23:05.539Z,8.70
2023-02-15T18:25:32.874Z,10.30
2023-02-15T18:28:00.128Z,8.60
2023-02-15T18:30:28.391Z,12.00
2023-02-15T18:32:56.748Z,13.30
2023-02-15T18:35:26.179Z,10.00
2023-02-15T18:37:53.835Z,8.00
2023-02-15T18:40:22.731Z,17.50
2023-02-15T18:42:50.100Z,14.20
2023-02-15T18:45:27.126Z,13.40
2023-02-15T18:47:57.692Z,11.20
2023-02-15T18:50:27.109Z,10.30
2023-02-15T18:52:54.451Z,7.70
2023-02-15T18:55:28.261Z,10.80
2023-02-15T18:57:56.744Z,12.90
2023-02-15T19:00:28.920Z,8.50
2023-02-15T19:02:56.780Z,12.10
2023-02-15T19:05:24.437Z,9.50
2023-02-15T19:07:52.689Z,10.20
2023-02-15T19:10:21.333Z,10.80
2023-02-15T19:12:48.855Z,13.80
2023-02-15T19:15:26.894Z,15.70
2023-02-15T19:17:54.164Z,18.00
2023-02-15T19:20:39.288Z,16.70
2023-02-15T19:23:08.336Z,18.20
2023-02-15T19:25:37.667Z,18.70
2023-02-15T19:28:27.822Z,21.60
2023-02-15T19:30:54.958Z,21.40
2023-02-15T19:33:23.360Z,23.70
2023-02-15T19:35:53.801Z,23.20
2023-02-15T19:38:33.131Z,19.60
2023-02-15T19:41:01.646Z,20.30
2023-02-15T19:43:29.790Z,21.70
2023-02-15T19:45:57.157Z,20.30
2023-02-15T19:48:24.404Z,20.00
2023-02-15T19:50:56.645Z,22.20
2023-02-15T19:53:25.604Z,18.40
2023-02-15T19:55:53.359Z,46.40
2023-02-15T19:58:21.424Z,74.60
2023-02-15T20:00:49.607Z,70.00
2023-02-15T20:03:17.730Z,54.00
2023-02-15T20:05:45.616Z,47.40
2023-02-15T20:08:18.529Z,68.00
2023-02-15T20:10:46.453Z,90.90
2023-02-15T20:13:16.694Z,94.80
2023-02-15T20:15:44.302Z,61.10
2023-02-15T20:18:11.476Z,53.90
2023-02-15T20:20:45.376Z,88.60
2023-02-15T20:23:22.645Z,134.70
2023-02-15T20:25:50.142Z,193.10
2023-02-15T20:28:23.133Z,189.90
2023-02-15T20:30:51.281Z,170.50
2023-02-15T20:33:19.198Z,88.40
2023-02-15T20:35:46.259Z,61.10
2023-02-15T20:38:18.999Z,41.20
2023-02-15T20:41:06.426Z,20.60
2023-02-15T20:43:33.701Z,21.10
2023-02-15T20:46:02.007Z,20.20
2023-02-15T20:48:30.571Z,34.50
2023-02-15T20:50:58.141Z,18.90
2023-02-15T20:53:26.127Z,21.40
2023-02-15T20:55:53.562Z,15.70
2023-02-15T20:58:26.500Z,17.70
2023-02-15T21:00:54.418Z,13.80
2023-02-15T21:03:24.114Z,12.80
2023-02-15T21:05:51.270Z,11.30
2023-02-15T21:08:20.713Z,9.80
2023-02-15T21:10:50.828Z,9.40
2023-02-15T21:13:36.024Z,9.00
2023-02-15T21:16:03.600Z,7.20
2023-02-15T21:18:32.881Z,7.30
2023-02-15T21:21:02.089Z,9.50
2023-02-15T21:23:38.258Z,8.50
2023-02-15T21:26:07.162Z,9.40
2023-02-15T21:28:35.135Z,9.50
2023-02-15T21:31:02.967Z,8.60
2023-02-15T21:33:31.026Z,7.10
2023-02-15T21:35:58.599Z,9.40
2023-02-15T21:38:28.141Z,8.90
2023-02-15T21:41:16.401Z,10.10
2023-02-15T21:44:02.518Z,7.20
2023-02-15T21:46:49.776Z,8.20
2023-02-15T21:49:16.859Z,7.90
2023-02-15T21:52:02.805Z,10.10
2023-02-15T21:54:29.826Z,11.70
2023-02-15T21:56:57.274Z,13.80
2023-02-15T21:59:24.927Z,15.70
2023-02-15T22:01:52.251Z,15.30
2023-02-15T22:04:25.289Z,14.90
2023-02-15T22:06:52.479Z,10.70
2023-02-15T22:09:21.978Z,10.40
2023-02-15T22:11:51.022Z,13.00
2023-02-15T22:14:35.291Z,13.90
2023-02-15T22:17:17.771Z,15.50
2023-02-15T22:19:45.811Z,15.60
2023-02-15T22:22:13.930Z,8.10
2023-02-15T22:24:42.778Z,9.60
2023-02-15T22:27:25.264Z,9.10
2023-02-15T22:29:52.512Z,9.20
2023-02-15T22:32:21.604Z,9.50
2023-02-15T22:34:49.194Z,9.90
2023-02-15T22:37:16.838Z,9.70
2023-02-15T22:39:43.912Z,6.10
2023-02-15T22:42:27.583Z,6.50
2023-02-15T22:47:27.553Z,9.00
2023-02-15T22:49:54.970Z,7.40
2023-02-15T22:52:24.155Z,11.10
2023-02-15T22:54:51.193Z,5.50
2023-02-15T22:57:22.360Z,9.00
2023-02-15T22:59:50.084Z,6.60
2023-02-15T23:02:17.209Z,5.50
2023-02-15T23:04:44.691Z,6.40
2023-02-15T23:07:18.847Z,4.50
2023-02-15T23:09:46.499Z,6.90
2023-02-15T23:12:59.905Z,4.60
2023-02-15T23:15:27.292Z,3.30
2023-02-15T23:17:54.538Z,3.20
2023-02-15T23:20:21.567Z,2.90
2023-02-15T23:22:49.477Z,3.30
2023-02-15T23:25:21.350Z,6.90
2023-02-15T23:27:57.738Z,6.90
2023-02-15T23:30:25.198Z,2.00
2023-02-15T23:32:53.084Z,3.30
2023-02-15T23:35:20.104Z,3.20
2023-02-15T23:37:47.615Z,4.20
2023-02-15T23:40:34.860Z,3.10
2023-02-15T23:43:02.293Z,3.20
2023-02-15T23:45:29.628Z,4.90
2023-02-15T23:48:15.677Z,4.80
2023-02-15T23:50:43.588Z,3.90
2023-02-15T23:53:10.657Z,3.40
2023-02-15T23:55:38.847Z,2.60
2023-02-15T23:58:09.507Z,4.60
